createdAt,value
2019-06-08T00:02:22.940Z,1.53
2019-06-08T00:04:55.003Z,1.53
2019-06-08T00:07:24.488Z,1.50
2019-06-08T00:09:53.985Z,1.30
2019-06-08T00:12:23.547Z,1.20
2019-06-08T00:14:53.037Z,1.17
2019-06-08T00:17:34.325Z,1.30
2019-06-08T00:19:53.794Z,1.60
2019-06-08T00:22:23.904Z,1.20
2019-06-08T00:24:53.441Z,1.60
2019-06-08T00:27:23.367Z,1.50
2019-06-08T00:29:53.994Z,1.50
2019-06-08T00:32:24.516Z,1.60
2019-06-08T00:34:54.001Z,1.60
2019-06-08T00:37:23.454Z,1.13
2019-06-08T00:39:52.936Z,1.50
2019-06-08T00:42:23.329Z,1.50
2019-06-08T00:44:52.766Z,1.70
2019-06-08T00:47:22.627Z,1.40
2019-06-08T00:49:52.183Z,1.40
2019-06-08T00:52:21.697Z,1.47
2019-06-08T00:54:52.594Z,1.50
2019-06-08T00:57:22.111Z,1.50
2019-06-08T00:59:51.629Z,1.53
2019-06-08T01:02:22.454Z,1.63
2019-06-08T01:04:52.069Z,1.50
2019-06-08T01:07:22.066Z,1.40
2019-06-08T01:09:52.611Z,1.43
2019-06-08T01:12:22.583Z,1.60
2019-06-08T01:14:52.103Z,1.80
2019-06-08T01:17:21.571Z,1.40
2019-06-08T01:19:51.022Z,1.60
2019-06-08T01:22:21.577Z,1.70
2019-06-08T01:24:51.148Z,1.67
2019-06-08T01:27:21.946Z,1.50
2019-06-08T01:29:51.627Z,1.50
2019-06-08T01:32:22.215Z,1.40
2019-06-08T01:34:51.852Z,1.53
2019-06-08T01:37:21.427Z,1.57
2019-06-08T01:39:51.996Z,1.43
2019-06-08T01:42:21.526Z,1.50
2019-06-08T01:44:51.042Z,1.33
2019-06-08T01:47:22.032Z,1.50
2019-06-08T01:49:51.666Z,1.60
2019-06-08T01:52:22.419Z,1.50
2019-06-08T01:54:51.971Z,1.70
2019-06-08T01:57:21.429Z,1.60
2019-06-08T01:59:50.901Z,1.70
2019-06-08T02:02:20.489Z,1.50
2019-06-08T02:04:50.096Z,1.57
2019-06-08T02:07:19.528Z,1.50
2019-06-08T02:09:49.023Z,1.80
2019-06-08T02:12:18.478Z,1.40
2019-06-08T02:14:47.932Z,1.40
2019-06-08T02:17:17.417Z,1.47
2019-06-08T02:19:46.903Z,1.60
2019-06-08T02:22:16.439Z,1.60
2019-06-08T02:24:45.917Z,1.77
2019-06-08T02:27:15.431Z,1.30
2019-06-08T02:29:44.952Z,1.50
2019-06-08T02:32:14.409Z,1.87
2019-06-08T02:34:43.893Z,1.70
2019-06-08T02:37:13.433Z,1.50
2019-06-08T02:39:42.908Z,1.60
2019-06-08T02:42:12.486Z,1.50
2019-06-08T02:44:41.962Z,1.90
2019-06-08T02:47:11.486Z,1.60
2019-06-08T02:49:41.024Z,1.50
2019-06-08T02:52:11.832Z,1.50
2019-06-08T02:54:42.589Z,1.50
2019-06-08T02:57:14.121Z,1.60
2019-06-08T02:59:45.464Z,1.50
2019-06-08T03:02:17.649Z,1.33
2019-06-08T03:04:50.303Z,1.87
2019-06-08T03:07:22.765Z,1.40
2019-06-08T03:09:56.385Z,1.50
2019-06-08T03:12:27.522Z,1.70
2019-06-08T03:14:58.048Z,1.70
2019-06-08T03:17:27.555Z,1.67
2019-06-08T03:19:57.051Z,1.57
2019-06-08T03:22:26.531Z,1.80
2019-06-08T03:24:55.985Z,1.73
2019-06-08T03:27:25.507Z,1.67
2019-06-08T03:29:54.979Z,1.80
2019-06-08T03:32:24.433Z,1.30
2019-06-08T03:34:56.527Z,2.10
2019-06-08T03:37:25.114Z,1.50
2019-06-08T03:39:54.611Z,1.60
2019-06-08T03:42:24.078Z,1.70
2019-06-08T03:44:53.566Z,1.83
2019-06-08T03:47:23.052Z,2.03
2019-06-08T03:49:57.389Z,1.63
2019-06-08T03:52:23.783Z,1.70
2019-06-08T03:54:53.298Z,1.60
2019-06-08T03:57:22.852Z,2.07
2019-06-08T03:59:52.345Z,1.90
2019-06-08T04:02:21.816Z,2.07
2019-06-08T04:04:51.303Z,2.17
2019-06-08T04:07:20.832Z,1.97
2019-06-08T04:09:50.324Z,1.97
2019-06-08T04:12:19.802Z,1.90
2019-06-08T04:14:50.437Z,1.73
2019-06-08T04:17:20.015Z,1.50
2019-06-08T04:20:06.375Z,1.73
2019-06-08T04:22:20.735Z,2.00
2019-06-08T04:24:50.676Z,1.90
2019-06-08T04:27:20.214Z,2.00
2019-06-08T04:29:53.873Z,2.00
2019-06-08T04:32:22.998Z,1.97
2019-06-08T04:34:52.543Z,1.80
2019-06-08T04:37:21.998Z,1.90
2019-06-08T04:39:51.505Z,1.60
2019-06-08T04:42:20.992Z,1.90
2019-06-08T04:44:50.455Z,1.60
2019-06-08T04:47:19.992Z,1.90
2019-06-08T04:49:49.491Z,2.03
2019-06-08T04:52:18.957Z,2.10
2019-06-08T04:54:49.789Z,1.87
2019-06-08T04:57:19.462Z,1.80
2019-06-08T04:59:50.411Z,1.63
2019-06-08T05:02:20.171Z,2.03
2019-06-08T05:04:49.637Z,1.77
2019-06-08T05:07:19.280Z,1.93
2019-06-08T05:09:49.511Z,2.00
2019-06-08T05:12:19.132Z,2.47
2019-06-08T05:14:49.235Z,2.00
2019-06-08T05:17:18.761Z,2.00
2019-06-08T05:19:50.277Z,2.07
2019-06-08T05:22:19.502Z,1.80
2019-06-08T05:24:49.983Z,1.90
2019-06-08T05:27:19.872Z,1.90
2019-06-08T05:29:50.108Z,2.20
2019-06-08T05:32:19.735Z,2.27
2019-06-08T05:34:49.705Z,2.10
2019-06-08T05:37:19.355Z,2.27
2019-06-08T05:39:49.917Z,2.00
2019-06-08T05:42:19.531Z,2.07
2019-06-08T05:44:50.398Z,2.30
2019-06-08T05:47:19.983Z,1.93
2019-06-08T05:49:49.951Z,2.00
2019-06-08T05:52:19.706Z,2.17
2019-06-08T05:54:52.466Z,2.33
2019-06-08T05:57:21.925Z,2.00
2019-06-08T05:59:51.435Z,2.33
2019-06-08T06:02:20.976Z,1.97
2019-06-08T06:04:52.103Z,2.10
2019-06-08T06:07:21.732Z,2.40
2019-06-08T06:09:51.230Z,2.37
2019-06-08T06:12:20.757Z,2.73
2019-06-08T06:14:51.270Z,2.30
2019-06-08T06:17:20.775Z,2.80
2019-06-08T06:19:51.516Z,2.20
2019-06-08T06:22:21.064Z,2.60
2019-06-08T06:24:51.628Z,2.17
2019-06-08T06:27:21.571Z,2.80
2019-06-08T06:29:52.034Z,2.40
2019-06-08T06:32:21.685Z,2.17
2019-06-08T06:34:52.177Z,2.33
2019-06-08T06:37:21.919Z,2.20
2019-06-08T06:39:52.277Z,2.30
2019-06-08T06:42:24.774Z,2.23
2019-06-08T06:44:53.204Z,2.50
2019-06-08T06:47:22.882Z,2.50
2019-06-08T06:49:52.626Z,2.33
2019-06-08T06:52:22.286Z,2.13
2019-06-08T06:54:52.984Z,2.23
2019-06-08T06:57:22.841Z,2.30
2019-06-08T06:59:52.358Z,2.20
2019-06-08T07:02:22.808Z,2.40
2019-06-08T07:04:52.406Z,2.10
2019-06-08T07:07:21.963Z,2.37
2019-06-08T07:09:52.760Z,2.40
2019-06-08T07:12:22.467Z,2.30
2019-06-08T07:14:53.034Z,2.63
2019-06-08T07:17:25.498Z,1.87
2019-06-08T07:19:55.016Z,2.47
2019-06-08T07:22:24.726Z,2.20
2019-06-08T07:24:54.523Z,2.00
2019-06-08T07:27:24.246Z,2.00
2019-06-08T07:29:54.818Z,1.90
2019-06-08T07:32:24.543Z,2.07
2019-06-08T07:34:55.170Z,2.00
2019-06-08T07:37:24.961Z,2.40
2019-06-08T07:39:55.938Z,2.17
2019-06-08T07:42:25.823Z,1.90
2019-06-08T07:44:55.796Z,2.30
2019-06-08T07:47:25.371Z,2.03
2019-06-08T07:49:55.581Z,2.30
2019-06-08T07:52:25.348Z,2.00
2019-06-08T07:54:55.061Z,2.00
2019-06-08T07:57:24.535Z,2.00
2019-06-08T07:59:54.559Z,2.03
2019-06-08T08:02:24.567Z,2.07
2019-06-08T08:04:54.598Z,2.00
2019-06-08T08:07:24.183Z,2.17
2019-06-08T08:09:54.945Z,2.40
2019-06-08T08:12:24.463Z,2.20
2019-06-08T08:14:55.226Z,2.23
2019-06-08T08:17:25.008Z,2.10
2019-06-08T08:19:55.172Z,2.53
2019-06-08T08:22:26.329Z,2.20
2019-06-08T08:25:01.313Z,2.23
2019-06-08T08:27:28.102Z,2.23
2019-06-08T08:29:59.759Z,2.17
2019-06-08T08:32:29.142Z,2.17
2019-06-08T08:35:01.059Z,2.20
2019-06-08T08:37:29.923Z,2.10
2019-06-08T08:40:01.359Z,1.97
2019-06-08T08:42:30.581Z,2.20
2019-06-08T08:45:05.181Z,2.13
2019-06-08T08:47:31.243Z,2.10
2019-06-08T08:50:02.136Z,2.10
2019-06-08T08:52:37.057Z,1.83
2019-06-08T08:55:02.961Z,2.00
2019-06-08T08:57:32.524Z,2.27
2019-06-08T09:00:04.883Z,1.87
2019-06-08T09:02:33.319Z,2.10
2019-06-08T09:05:03.701Z,1.87
2019-06-08T09:07:33.582Z,2.50
2019-06-08T09:10:03.887Z,2.17
2019-06-08T09:12:33.875Z,2.20
2019-06-08T09:15:04.202Z,2.10
2019-06-08T09:17:33.744Z,2.10
2019-06-08T09:20:03.945Z,2.20
2019-06-08T09:22:47.167Z,2.20
2019-06-08T09:25:08.759Z,1.80
2019-06-08T09:27:38.422Z,2.00
2019-06-08T09:30:08.974Z,2.10
2019-06-08T09:32:38.504Z,1.97
2019-06-08T09:35:09.346Z,2.20
2019-06-08T09:37:39.088Z,2.27
2019-06-08T09:40:08.779Z,2.30
2019-06-08T09:42:38.383Z,1.80
2019-06-08T09:45:11.597Z,2.10
2019-06-08T09:47:41.094Z,2.00
2019-06-08T09:50:10.991Z,2.03
2019-06-08T09:52:41.337Z,2.10
2019-06-08T09:55:11.823Z,2.40
2019-06-08T09:57:41.297Z,2.40
2019-06-08T10:00:18.034Z,2.20
2019-06-08T10:02:42.621Z,2.00
2019-06-08T10:05:12.506Z,1.90
2019-06-08T10:07:42.007Z,2.23
2019-06-08T10:10:11.681Z,2.00
2019-06-08T10:12:41.355Z,2.10
2019-06-08T10:15:11.689Z,2.30
2019-06-08T10:17:41.096Z,2.07
2019-06-08T10:20:11.164Z,2.17
2019-06-08T10:22:40.672Z,1.90
2019-06-08T10:25:11.291Z,2.10
2019-06-08T10:27:40.965Z,2.20
2019-06-08T10:30:12.229Z,2.13
2019-06-08T10:32:41.666Z,2.10
2019-06-08T10:35:12.859Z,2.13
2019-06-08T10:37:42.317Z,2.43
2019-06-08T10:40:14.167Z,2.30
2019-06-08T10:42:43.810Z,1.93
2019-06-08T10:45:15.023Z,2.07
2019-06-08T10:47:47.752Z,1.87
2019-06-08T10:50:19.142Z,2.17
2019-06-08T10:52:48.619Z,2.20
2019-06-08T10:55:19.105Z,1.93
2019-06-08T10:57:48.695Z,1.93
2019-06-08T11:00:28.206Z,2.50
2019-06-08T11:03:01.339Z,2.20
2019-06-08T11:05:28.442Z,2.30
2019-06-08T11:07:59.345Z,2.00
2019-06-08T11:10:29.323Z,2.27
2019-06-08T11:13:05.213Z,1.97
2019-06-08T11:15:30.149Z,2.17
2019-06-08T11:18:03.098Z,2.40
2019-06-08T11:20:30.884Z,2.70
2019-06-08T11:23:02.082Z,2.27
2019-06-08T11:25:31.579Z,2.07
2019-06-08T11:28:01.825Z,2.27
2019-06-08T11:30:31.494Z,2.30
2019-06-08T11:33:02.090Z,2.23
2019-06-08T11:35:31.550Z,2.20
2019-06-08T11:38:02.203Z,2.10
2019-06-08T11:40:31.798Z,2.17
2019-06-08T11:43:02.284Z,2.10
2019-06-08T11:45:31.838Z,2.53
2019-06-08T11:48:02.727Z,2.00
2019-06-08T11:50:41.995Z,2.23
2019-06-08T11:53:12.660Z,2.23
2019-06-08T11:55:42.315Z,2.00
2019-06-08T11:58:13.650Z,2.30
2019-06-08T12:01:00.846Z,2.00
2019-06-08T12:03:30.429Z,1.87
2019-06-08T12:06:02.025Z,1.80
2019-06-08T12:08:31.792Z,1.90
2019-06-08T12:11:02.575Z,2.23
2019-06-08T12:13:32.967Z,2.47
2019-06-08T12:16:03.057Z,2.00
2019-06-08T12:18:32.787Z,2.00
2019-06-08T12:21:03.696Z,2.00
2019-06-08T12:23:33.394Z,1.97
2019-06-08T12:26:03.951Z,1.90
2019-06-08T12:28:33.507Z,1.93
2019-06-08T12:31:02.997Z,1.90
2019-06-08T12:33:32.477Z,1.70
2019-06-08T12:36:02.093Z,1.70
2019-06-08T12:38:34.473Z,1.90
2019-06-08T12:41:02.842Z,2.30
2019-06-08T12:43:32.303Z,1.90
2019-06-08T12:46:01.837Z,2.07
2019-06-08T12:48:31.356Z,2.30
2019-06-08T12:51:00.930Z,2.00
2019-06-08T12:53:30.425Z,2.13
2019-06-08T12:55:59.937Z,1.80
2019-06-08T12:58:29.422Z,2.30
2019-06-08T13:00:58.938Z,2.20
2019-06-08T13:03:29.881Z,2.20
2019-06-08T13:05:59.518Z,2.13
2019-06-08T13:08:29.046Z,1.73
2019-06-08T13:11:00.430Z,2.07
2019-06-08T13:13:29.735Z,2.00
2019-06-08T13:15:59.234Z,2.00
2019-06-08T13:18:28.901Z,1.60
2019-06-08T13:21:00.396Z,1.90
2019-06-08T13:23:29.575Z,1.97
2019-06-08T13:25:59.051Z,1.90
2019-06-08T13:28:28.543Z,1.90
2019-06-08T13:30:58.289Z,1.60
2019-06-08T13:33:28.217Z,1.70
2019-06-08T13:35:58.127Z,1.53
2019-06-08T13:38:27.898Z,2.27
2019-06-08T13:40:58.924Z,2.03
2019-06-08T13:43:28.493Z,2.23
2019-06-08T13:45:58.465Z,1.80
2019-06-08T13:48:27.994Z,1.83
2019-06-08T13:50:59.175Z,1.90
2019-06-08T13:53:31.680Z,1.70
2019-06-08T13:56:00.036Z,1.87
2019-06-08T13:58:33.101Z,1.70
2019-06-08T14:01:00.841Z,1.97
2019-06-08T14:03:30.337Z,2.07
2019-06-08T14:05:59.815Z,1.80
2019-06-08T14:08:32.874Z,1.70
2019-06-08T14:11:02.372Z,1.90
2019-06-08T14:13:34.681Z,1.73
2019-06-08T14:16:03.154Z,1.90
2019-06-08T14:18:34.286Z,1.30
2019-06-08T14:21:04.014Z,1.40
2019-06-08T14:23:33.484Z,1.10
2019-06-08T14:26:03.056Z,1.03
2019-06-08T14:28:32.632Z,1.40
2019-06-08T14:31:02.103Z,1.10
2019-06-08T14:33:33.426Z,1.17
2019-06-08T14:36:02.795Z,1.33
2019-06-08T14:38:38.678Z,1.57
2019-06-08T14:41:03.502Z,1.27
2019-06-08T14:43:33.041Z,1.30
2019-06-08T14:46:02.549Z,1.50
2019-06-08T14:48:33.868Z,1.80
2019-06-08T14:51:03.252Z,1.80
2019-06-08T14:53:32.824Z,1.60
2019-06-08T14:56:08.091Z,2.10
2019-06-08T14:58:35.027Z,1.80
2019-06-08T15:01:04.836Z,1.40
2019-06-08T15:03:34.286Z,1.47
2019-06-08T15:06:03.919Z,1.80
2019-06-08T15:08:33.488Z,1.47
2019-06-08T15:11:03.013Z,1.30
2019-06-08T15:13:32.481Z,1.47
2019-06-08T15:16:01.973Z,1.40
2019-06-08T15:18:31.895Z,1.27
2019-06-08T15:21:01.435Z,1.30
2019-06-08T15:23:32.664Z,1.20
2019-06-08T15:26:02.105Z,1.60
2019-06-08T15:28:36.012Z,1.60
2019-06-08T15:31:02.783Z,1.50
2019-06-08T15:33:33.681Z,1.57
2019-06-08T15:36:03.356Z,1.50
2019-06-08T15:38:33.537Z,1.60
2019-06-08T15:41:03.184Z,1.57
2019-06-08T15:43:36.864Z,2.10
2019-06-08T15:46:04.108Z,1.20
2019-06-08T15:48:34.239Z,1.53
2019-06-08T15:51:03.888Z,1.30
2019-06-08T15:53:34.158Z,1.20
2019-06-08T15:56:03.788Z,1.47
2019-06-08T15:58:33.994Z,1.20
2019-06-08T16:01:03.502Z,1.43
2019-06-08T16:03:33.558Z,1.17
2019-06-08T16:06:03.150Z,1.30
2019-06-08T16:08:36.549Z,1.50
2019-06-08T16:11:03.908Z,1.60
2019-06-08T16:13:34.726Z,1.40
2019-06-08T16:16:04.569Z,1.30
2019-06-08T16:18:33.990Z,1.43
2019-06-08T16:21:03.578Z,1.50
2019-06-08T16:23:33.681Z,1.50
2019-06-08T16:26:03.364Z,1.50
2019-06-08T16:28:34.109Z,1.60
2019-06-08T16:31:05.601Z,1.60
2019-06-08T16:33:35.472Z,1.47
2019-06-08T16:36:05.068Z,1.60
2019-06-08T16:38:34.534Z,1.90
2019-06-08T16:41:04.077Z,1.70
2019-06-08T16:43:34.791Z,1.67
2019-06-08T16:46:04.851Z,1.70
2019-06-08T16:48:34.677Z,1.90
2019-06-08T16:51:04.413Z,1.83
2019-06-08T16:53:34.237Z,1.97
2019-06-08T16:56:03.732Z,1.93
2019-06-08T16:58:34.289Z,2.03
2019-06-08T17:01:04.193Z,2.07
2019-06-08T17:03:34.831Z,2.17
2019-06-08T17:06:04.582Z,2.00
2019-06-08T17:08:37.567Z,2.30
2019-06-08T17:11:05.580Z,2.00
2019-06-08T17:13:36.085Z,2.17
2019-06-08T17:16:05.906Z,2.20
2019-06-08T17:18:36.235Z,1.97
2019-06-08T17:21:06.617Z,1.90
2019-06-08T17:23:36.511Z,2.00
2019-06-08T17:26:06.557Z,2.17
2019-06-08T17:28:37.126Z,2.03
2019-06-08T17:31:06.789Z,2.13
2019-06-08T17:33:37.431Z,2.00
2019-06-08T17:36:06.952Z,2.00
2019-06-08T17:38:37.203Z,2.20
2019-06-08T17:41:06.711Z,2.33
2019-06-08T17:43:38.168Z,2.17
2019-06-08T17:46:07.628Z,2.70
2019-06-08T17:48:38.555Z,2.20
2019-06-08T17:51:08.311Z,2.40
2019-06-08T17:53:39.074Z,2.10
2019-06-08T17:56:08.705Z,2.07
2019-06-08T17:58:39.594Z,1.80
2019-06-08T18:01:09.316Z,2.03
2019-06-08T18:03:41.049Z,2.10
2019-06-08T18:06:10.169Z,1.80
2019-06-08T18:08:41.943Z,2.13
2019-06-08T18:11:10.876Z,1.80
2019-06-08T18:13:42.515Z,1.90
2019-06-08T18:16:11.570Z,1.80
2019-06-08T18:18:42.308Z,2.00
2019-06-08T18:21:12.213Z,2.30
2019-06-08T18:23:43.602Z,2.00
2019-06-08T18:26:13.103Z,2.00
2019-06-08T18:28:45.226Z,1.90
2019-06-08T18:31:18.032Z,1.97
2019-06-08T18:33:50.123Z,1.67
2019-06-08T18:36:18.864Z,1.73
2019-06-08T18:38:48.735Z,1.53
2019-06-08T18:41:18.294Z,1.90
2019-06-08T18:43:51.918Z,1.53
2019-06-08T18:46:19.809Z,1.43
2019-06-08T18:48:51.257Z,1.50
2019-06-08T18:51:20.817Z,1.37
2019-06-08T18:54:07.264Z,1.27
2019-06-08T18:56:21.586Z,1.30
2019-06-08T18:58:53.623Z,1.27
2019-06-08T19:01:23.742Z,1.17
2019-06-08T19:03:53.618Z,1.70
2019-06-08T19:06:24.384Z,1.40
2019-06-08T19:08:54.949Z,1.80
2019-06-08T19:11:24.525Z,1.70
2019-06-08T19:13:54.337Z,1.60
2019-06-08T19:16:23.862Z,1.50
2019-06-08T19:18:53.354Z,1.90
2019-06-08T19:21:22.946Z,1.53
2019-06-08T19:23:52.393Z,1.80
2019-06-08T19:26:21.992Z,1.80
2019-06-08T19:28:54.255Z,1.60
2019-06-08T19:31:23.882Z,1.87
2019-06-08T19:33:53.660Z,1.60
2019-06-08T19:36:27.835Z,1.77
2019-06-08T19:38:57.732Z,1.90
2019-06-08T19:41:28.341Z,1.80
2019-06-08T19:43:58.481Z,1.80
2019-06-08T19:46:27.938Z,1.87
2019-06-08T19:48:58.975Z,2.00
2019-06-08T19:51:28.829Z,1.80
2019-06-08T19:53:58.553Z,2.10
2019-06-08T19:56:28.893Z,2.00
2019-06-08T19:59:04.483Z,2.03
2019-06-08T20:01:29.598Z,1.50
2019-06-08T20:04:01.240Z,1.97
2019-06-08T20:06:31.179Z,2.07
2019-06-08T20:09:00.656Z,1.80
2019-06-08T20:11:30.697Z,1.90
2019-06-08T20:14:00.151Z,1.93
2019-06-08T20:16:29.628Z,2.03
2019-06-08T20:18:59.218Z,1.70
2019-06-08T20:21:28.759Z,2.03
2019-06-08T20:24:01.811Z,1.80
2019-06-08T20:26:31.336Z,2.00
2019-06-08T20:29:12.158Z,2.10
2019-06-08T20:31:33.543Z,2.07
2019-06-08T20:34:03.172Z,2.03
2019-06-08T20:36:32.700Z,2.00
2019-06-08T20:39:02.173Z,2.27
2019-06-08T20:41:31.661Z,2.00
2019-06-08T20:44:01.163Z,2.20
2019-06-08T20:46:30.655Z,2.20
2019-06-08T20:49:00.101Z,2.67
2019-06-08T20:51:29.581Z,2.50
2019-06-08T20:53:59.167Z,2.30
2019-06-08T20:56:28.650Z,2.30
2019-06-08T20:58:58.225Z,2.70
2019-06-08T21:01:28.068Z,2.40
2019-06-08T21:03:57.595Z,2.20
2019-06-08T21:06:27.873Z,2.43
2019-06-08T21:08:59.770Z,2.40
2019-06-08T21:11:28.944Z,2.40
2019-06-08T21:13:58.436Z,2.30
2019-06-08T21:16:27.953Z,3.17
2019-06-08T21:18:57.966Z,4.73
2019-06-08T21:21:28.315Z,3.80
2019-06-08T21:24:00.984Z,2.90
2019-06-08T21:26:29.257Z,2.70
2019-06-08T21:29:00.326Z,2.50
2019-06-08T21:31:29.982Z,2.27
2019-06-08T21:34:00.844Z,2.30
2019-06-08T21:36:30.494Z,2.43
2019-06-08T21:39:02.343Z,2.10
2019-06-08T21:41:31.118Z,1.97
2019-06-08T21:44:02.332Z,2.27
2019-06-08T21:46:31.910Z,2.23
2019-06-08T21:49:01.385Z,2.13
2019-06-08T21:51:31.006Z,2.13
2019-06-08T21:54:00.631Z,2.53
2019-06-08T21:56:30.104Z,2.30
2019-06-08T21:59:01.080Z,2.63
2019-06-08T22:01:33.472Z,2.77
2019-06-08T22:04:02.927Z,2.80
2019-06-08T22:06:32.381Z,2.93
2019-06-08T22:09:02.971Z,2.73
2019-06-08T22:11:32.679Z,2.70
2019-06-08T22:14:03.126Z,2.77
2019-06-08T22:16:32.806Z,2.90
2019-06-08T22:19:03.381Z,2.73
2019-06-08T22:21:33.037Z,3.30
2019-06-08T22:24:03.618Z,3.50
2019-06-08T22:26:33.124Z,3.10
2019-06-08T22:29:03.721Z,3.13
2019-06-08T22:31:33.289Z,3.37
2019-06-08T22:34:04.060Z,3.37
2019-06-08T22:36:33.588Z,3.50
2019-06-08T22:39:03.794Z,3.00
2019-06-08T22:41:33.369Z,3.53
2019-06-08T22:44:03.186Z,3.30
2019-06-08T22:46:32.773Z,3.47
2019-06-08T22:49:02.915Z,3.77
2019-06-08T22:51:33.519Z,3.43
2019-06-08T22:54:04.011Z,3.57
2019-06-08T22:56:33.570Z,3.73
2019-06-08T22:59:04.702Z,3.83
2019-06-08T23:01:34.243Z,3.60
2019-06-08T23:04:05.571Z,3.37
2019-06-08T23:06:35.161Z,3.70
2019-06-08T23:09:08.512Z,3.47
2019-06-08T23:11:37.726Z,3.47
2019-06-08T23:14:12.954Z,3.93
2019-06-08T23:16:38.594Z,4.00
2019-06-08T23:19:09.590Z,3.60
2019-06-08T23:21:39.149Z,3.63
2019-06-08T23:24:08.737Z,3.80
2019-06-08T23:26:38.204Z,3.73
2019-06-08T23:29:09.553Z,3.67
2019-06-08T23:31:38.976Z,3.50
2019-06-08T23:34:11.357Z,3.03
2019-06-08T23:36:51.835Z,3.33
2019-06-08T23:39:10.896Z,3.20
2019-06-08T23:41:40.391Z,3.10
2019-06-08T23:44:10.058Z,3.17
2019-06-08T23:46:39.612Z,3.57
2019-06-08T23:49:09.174Z,3.43
2019-06-08T23:51:38.700Z,3.23
2019-06-08T23:54:12.062Z,3.50
2019-06-08T23:56:39.430Z,3.90
2019-06-08T23:59:09.447Z,3.73
